sensor_id;sensor_type;location;lat;lon;timestamp;P1;durP1;ratioP1;P2;durP2;ratioP2
67065;SDS011;53978;43.846;25.952;2023-07-09T00:01:08;7.18;;;2.92;;
67065;SDS011;53978;43.846;25.952;2023-07-09T00:03:38;4.30;;;2.67;;
67065;SDS011;53978;43.846;25.952;2023-07-09T00:06:03;3.05;;;2.50;;
67065;SDS011;53978;43.846;25.952;2023-07-09T00:08:30;3.92;;;2.55;;
67065;SDS011;53978;43.846;25.952;2023-07-09T00:10:56;2.33;;;2.13;;
67065;SDS011;53978;43.846;25.952;2023-07-09T00:13:22;7.75;;;3.00;;
67065;SDS011;53978;43.846;25.952;2023-07-09T00:15:49;3.70;;;2.80;;
67065;SDS011;53978;43.846;25.952;2023-07-09T00:18:15;11.40;;;2.75;;
67065;SDS011;53978;43.846;25.952;2023-07-09T00:20:40;4.03;;;2.67;;
67065;SDS011;53978;43.846;25.952;2023-07-09T00:23:08;2.90;;;2.33;;
67065;SDS011;53978;43.846;25.952;2023-07-09T00:25:40;3.05;;;2.38;;
67065;SDS011;53978;43.846;25.952;2023-07-09T00:28:13;2.92;;;2.42;;
67065;SDS011;53978;43.846;25.952;2023-07-09T00:30:39;3.53;;;2.22;;
67065;SDS011;53978;43.846;25.952;2023-07-09T00:33:06;3.03;;;2.50;;
67065;SDS011;53978;43.846;25.952;2023-07-09T00:35:35;3.47;;;2.58;;
67065;SDS011;53978;43.846;25.952;2023-07-09T00:38:00;3.25;;;2.25;;
67065;SDS011;53978;43.846;25.952;2023-07-09T00:40:26;4.80;;;2.88;;
67065;SDS011;53978;43.846;25.952;2023-07-09T00:42:53;6.45;;;2.58;;
67065;SDS011;53978;43.846;25.952;2023-07-09T00:45:20;7.35;;;2.28;;
67065;SDS011;53978;43.846;25.952;2023-07-09T00:47:48;4.38;;;2.47;;
67065;SDS011;53978;43.846;25.952;2023-07-09T00:53:19;6.03;;;2.63;;
67065;SDS011;53978;43.846;25.952;2023-07-09T00:55:49;4.82;;;2.53;;
67065;SDS011;53978;43.846;25.952;2023-07-09T00:58:18;5.28;;;3.17;;
67065;SDS011;53978;43.846;25.952;2023-07-09T01:00:47;7.65;;;2.70;;
67065;SDS011;53978;43.846;25.952;2023-07-09T01:03:37;4.32;;;2.40;;
67065;SDS011;53978;43.846;25.952;2023-07-09T01:06:08;6.35;;;2.55;;
67065;SDS011;53978;43.846;25.952;2023-07-09T01:08:35;4.75;;;3.40;;
67065;SDS011;53978;43.846;25.952;2023-07-09T01:11:01;10.93;;;2.80;;
67065;SDS011;53978;43.846;25.952;2023-07-09T01:13:27;3.78;;;2.58;;
67065;SDS011;53978;43.846;25.952;2023-07-09T01:15:54;6.95;;;2.30;;
67065;SDS011;53978;43.846;25.952;2023-07-09T01:18:21;3.75;;;2.58;;
67065;SDS011;53978;43.846;25.952;2023-07-09T01:20:47;7.50;;;2.47;;
67065;SDS011;53978;43.846;25.952;2023-07-09T01:23:12;5.15;;;2.25;;
67065;SDS011;53978;43.846;25.952;2023-07-09T01:25:41;6.70;;;2.33;;
67065;SDS011;53978;43.846;25.952;2023-07-09T01:28:11;4.40;;;2.65;;
67065;SDS011;53978;43.846;25.952;2023-07-09T01:30:38;4.63;;;2.20;;
67065;SDS011;53978;43.846;25.952;2023-07-09T01:33:05;2.97;;;2.45;;
67065;SDS011;53978;43.846;25.952;2023-07-09T01:35:33;5.18;;;2.30;;
67065;SDS011;53978;43.846;25.952;2023-07-09T01:38:00;3.88;;;2.47;;
67065;SDS011;53978;43.846;25.952;2023-07-09T01:40:26;2.65;;;2.40;;
67065;SDS011;53978;43.846;25.952;2023-07-09T01:42:53;3.03;;;2.08;;
67065;SDS011;53978;43.846;25.952;2023-07-09T01:45:20;6.45;;;2.38;;
67065;SDS011;53978;43.846;25.952;2023-07-09T01:47:46;6.75;;;2.10;;
67065;SDS011;53978;43.846;25.952;2023-07-09T01:50:11;3.70;;;2.20;;
67065;SDS011;53978;43.846;25.952;2023-07-09T01:52:38;2.88;;;2.30;;
67065;SDS011;53978;43.846;25.952;2023-07-09T01:55:08;4.15;;;2.15;;
67065;SDS011;53978;43.846;25.952;2023-07-09T01:57:35;4.20;;;2.47;;
67065;SDS011;53978;43.846;25.952;2023-07-09T02:00:04;4.60;;;2.35;;
67065;SDS011;53978;43.846;25.952;2023-07-09T02:02:32;3.78;;;2.30;;
67065;SDS011;53978;43.846;25.952;2023-07-09T02:04:58;4.53;;;2.40;;
67065;SDS011;53978;43.846;25.952;2023-07-09T02:07:26;3.42;;;2.30;;
67065;SDS011;53978;43.846;25.952;2023-07-09T02:09:51;6.38;;;2.28;;
67065;SDS011;53978;43.846;25.952;2023-07-09T02:12:17;3.42;;;2.25;;
67065;SDS011;53978;43.846;25.952;2023-07-09T02:14:43;3.40;;;2.38;;
67065;SDS011;53978;43.846;25.952;2023-07-09T02:17:10;3.45;;;2.25;;
67065;SDS011;53978;43.846;25.952;2023-07-09T02:19:35;3.83;;;2.00;;
67065;SDS011;53978;43.846;25.952;2023-07-09T02:22:01;4.97;;;2.60;;
67065;SDS011;53978;43.846;25.952;2023-07-09T02:24:27;6.43;;;2.70;;
67065;SDS011;53978;43.846;25.952;2023-07-09T02:26:56;3.78;;;2.20;;
67065;SDS011;53978;43.846;25.952;2023-07-09T02:29:23;4.18;;;2.88;;
67065;SDS011;53978;43.846;25.952;2023-07-09T02:31:49;4.10;;;2.78;;
67065;SDS011;53978;43.846;25.952;2023-07-09T02:34:16;6.10;;;2.45;;
67065;SDS011;53978;43.846;25.952;2023-07-09T02:36:42;2.92;;;2.30;;
67065;SDS011;53978;43.846;25.952;2023-07-09T02:39:12;4.35;;;2.45;;
67065;SDS011;53978;43.846;25.952;2023-07-09T02:41:39;5.30;;;2.60;;
67065;SDS011;53978;43.846;25.952;2023-07-09T02:44:05;2.40;;;2.20;;
67065;SDS011;53978;43.846;25.952;2023-07-09T02:46:30;5.75;;;2.63;;
67065;SDS011;53978;43.846;25.952;2023-07-09T02:48:56;6.35;;;2.78;;
67065;SDS011;53978;43.846;25.952;2023-07-09T02:51:22;4.03;;;2.50;;
67065;SDS011;53978;43.846;25.952;2023-07-09T02:53:49;5.32;;;2.33;;
67065;SDS011;53978;43.846;25.952;2023-07-09T02:56:14;3.30;;;2.42;;
67065;SDS011;53978;43.846;25.952;2023-07-09T02:58:39;4.05;;;2.70;;
67065;SDS011;53978;43.846;25.952;2023-07-09T03:01:05;7.10;;;2.42;;
67065;SDS011;53978;43.846;25.952;2023-07-09T03:03:31;2.50;;;2.30;;
67065;SDS011;53978;43.846;25.952;2023-07-09T03:05:56;7.40;;;2.40;;
67065;SDS011;53978;43.846;25.952;2023-07-09T03:08:22;3.05;;;2.28;;
67065;SDS011;53978;43.846;25.952;2023-07-09T03:10:47;2.47;;;2.20;;
67065;SDS011;53978;43.846;25.952;2023-07-09T03:13:12;3.33;;;2.22;;
67065;SDS011;53978;43.846;25.952;2023-07-09T03:15:38;2.97;;;2.40;;
67065;SDS011;53978;43.846;25.952;2023-07-09T03:18:03;5.35;;;2.63;;
67065;SDS011;53978;43.846;25.952;2023-07-09T03:20:29;3.53;;;2.17;;
67065;SDS011;53978;43.846;25.952;2023-07-09T03:22:54;2.85;;;2.22;;
67065;SDS011;53978;43.846;25.952;2023-07-09T03:25:20;4.47;;;2.50;;
67065;SDS011;53978;43.846;25.952;2023-07-09T03:27:47;3.65;;;2.40;;
67065;SDS011;53978;43.846;25.952;2023-07-09T03:30:13;3.35;;;2.45;;
67065;SDS011;53978;43.846;25.952;2023-07-09T03:32:38;6.00;;;2.70;;
67065;SDS011;53978;43.846;25.952;2023-07-09T03:35:04;6.60;;;2.65;;
67065;SDS011;53978;43.846;25.952;2023-07-09T03:37:29;3.03;;;2.28;;
67065;SDS011;53978;43.846;25.952;2023-07-09T03:39:55;4.82;;;2.70;;
67065;SDS011;53978;43.846;25.952;2023-07-09T03:42:20;3.40;;;2.25;;
67065;SDS011;53978;43.846;25.952;2023-07-09T03:44:45;7.35;;;2.63;;
67065;SDS011;53978;43.846;25.952;2023-07-09T03:47:11;3.08;;;2.60;;
67065;SDS011;53978;43.846;25.952;2023-07-09T03:49:37;6.38;;;2.60;;
67065;SDS011;53978;43.846;25.952;2023-07-09T03:52:03;6.43;;;2.70;;
67065;SDS011;53978;43.846;25.952;2023-07-09T03:54:28;2.78;;;2.55;;
67065;SDS011;53978;43.846;25.952;2023-07-09T03:56:54;6.15;;;2.83;;
67065;SDS011;53978;43.846;25.952;2023-07-09T03:59:19;4.65;;;2.53;;
67065;SDS011;53978;43.846;25.952;2023-07-09T04:01:44;4.50;;;2.75;;
67065;SDS011;53978;43.846;25.952;2023-07-09T04:04:10;3.75;;;2.55;;
67065;SDS011;53978;43.846;25.952;2023-07-09T04:06:37;2.92;;;2.63;;
67065;SDS011;53978;43.846;25.952;2023-07-09T04:09:02;3.25;;;2.60;;
67065;SDS011;53978;43.846;25.952;2023-07-09T04:11:27;7.78;;;2.88;;
67065;SDS011;53978;43.846;25.952;2023-07-09T04:13:53;3.17;;;2.60;;
67065;SDS011;53978;43.846;25.952;2023-07-09T04:16:18;4.28;;;2.60;;
67065;SDS011;53978;43.846;25.952;2023-07-09T04:18:44;6.28;;;2.53;;
67065;SDS011;53978;43.846;25.952;2023-07-09T04:21:09;3.70;;;2.53;;
67065;SDS011;53978;43.846;25.952;2023-07-09T04:23:34;5.35;;;2.55;;
67065;SDS011;53978;43.846;25.952;2023-07-09T04:26:00;7.75;;;2.90;;
67065;SDS011;53978;43.846;25.952;2023-07-09T04:28:27;4.80;;;3.00;;
67065;SDS011;53978;43.846;25.952;2023-07-09T04:30:55;6.70;;;3.28;;
67065;SDS011;53978;43.846;25.952;2023-07-09T04:33:20;4.10;;;3.13;;
67065;SDS011;53978;43.846;25.952;2023-07-09T04:35:46;8.38;;;2.80;;
67065;SDS011;53978;43.846;25.952;2023-07-09T04:38:12;4.15;;;3.00;;
67065;SDS011;53978;43.846;25.952;2023-07-09T04:40:38;3.90;;;2.75;;
67065;SDS011;53978;43.846;25.952;2023-07-09T04:43:03;4.22;;;2.78;;
67065;SDS011;53978;43.846;25.952;2023-07-09T04:45:29;7.80;;;2.72;;
67065;SDS011;53978;43.846;25.952;2023-07-09T04:47:54;3.15;;;2.65;;
67065;SDS011;53978;43.846;25.952;2023-07-09T04:50:20;2.95;;;2.63;;
67065;SDS011;53978;43.846;25.952;2023-07-09T04:52:45;3.47;;;2.85;;
67065;SDS011;53978;43.846;25.952;2023-07-09T04:55:10;4.75;;;3.05;;
67065;SDS011;53978;43.846;25.952;2023-07-09T04:57:36;3.65;;;2.97;;
67065;SDS011;53978;43.846;25.952;2023-07-09T05:00:02;4.10;;;2.80;;
67065;SDS011;53978;43.846;25.952;2023-07-09T05:02:29;3.25;;;2.58;;
67065;SDS011;53978;43.846;25.952;2023-07-09T05:04:55;6.55;;;2.78;;
67065;SDS011;53978;43.846;25.952;2023-07-09T05:07:20;11.18;;;3.03;;
67065;SDS011;53978;43.846;25.952;2023-07-09T05:09:46;7.13;;;2.65;;
67065;SDS011;53978;43.846;25.952;2023-07-09T05:12:12;7.15;;;2.72;;
67065;SDS011;53978;43.846;25.952;2023-07-09T05:14:37;2.83;;;2.63;;
67065;SDS011;53978;43.846;25.952;2023-07-09T05:17:03;4.28;;;2.70;;
67065;SDS011;53978;43.846;25.952;2023-07-09T05:19:29;3.95;;;2.70;;
67065;SDS011;53978;43.846;25.952;2023-07-09T05:21:54;10.02;;;2.88;;
67065;SDS011;53978;43.846;25.952;2023-07-09T05:24:20;7.75;;;3.10;;
67065;SDS011;53978;43.846;25.952;2023-07-09T05:26:45;5.45;;;3.25;;
67065;SDS011;53978;43.846;25.952;2023-07-09T05:29:11;5.93;;;3.17;;
67065;SDS011;53978;43.846;25.952;2023-07-09T05:31:36;7.20;;;3.33;;
67065;SDS011;53978;43.846;25.952;2023-07-09T05:34:02;5.78;;;3.08;;
67065;SDS011;53978;43.846;25.952;2023-07-09T05:36:28;6.32;;;3.13;;
67065;SDS011;53978;43.846;25.952;2023-07-09T05:38:54;3.85;;;3.28;;
67065;SDS011;53978;43.846;25.952;2023-07-09T05:41:20;6.15;;;3.30;;
67065;SDS011;53978;43.846;25.952;2023-07-09T05:43:46;6.72;;;3.15;;
67065;SDS011;53978;43.846;25.952;2023-07-09T05:46:12;4.25;;;3.78;;
67065;SDS011;53978;43.846;25.952;2023-07-09T05:48:38;7.03;;;3.65;;
67065;SDS011;53978;43.846;25.952;2023-07-09T05:51:03;6.95;;;4.43;;
67065;SDS011;53978;43.846;25.952;2023-07-09T05:53:29;4.10;;;3.63;;
67065;SDS011;53978;43.846;25.952;2023-07-09T05:55:55;7.63;;;3.75;;
67065;SDS011;53978;43.846;25.952;2023-07-09T05:58:21;18.95;;;4.30;;
67065;SDS011;53978;43.846;25.952;2023-07-09T06:00:50;8.00;;;3.70;;
67065;SDS011;53978;43.846;25.952;2023-07-09T06:03:21;4.35;;;3.85;;
67065;SDS011;53978;43.846;25.952;2023-07-09T06:05:48;8.35;;;3.80;;
67065;SDS011;53978;43.846;25.952;2023-07-09T06:08:17;5.63;;;3.92;;
67065;SDS011;53978;43.846;25.952;2023-07-09T06:10:53;6.85;;;3.95;;
67065;SDS011;53978;43.846;25.952;2023-07-09T06:13:23;8.15;;;3.92;;
67065;SDS011;53978;43.846;25.952;2023-07-09T06:15:50;12.00;;;4.20;;
67065;SDS011;53978;43.846;25.952;2023-07-09T06:18:17;8.98;;;4.00;;
67065;SDS011;53978;43.846;25.952;2023-07-09T06:20:45;5.43;;;3.90;;
67065;SDS011;53978;43.846;25.952;2023-07-09T06:23:17;6.95;;;3.67;;
67065;SDS011;53978;43.846;25.952;2023-07-09T06:25:43;5.55;;;3.70;;
67065;SDS011;53978;43.846;25.952;2023-07-09T06:28:12;4.97;;;4.03;;
67065;SDS011;53978;43.846;25.952;2023-07-09T06:30:40;4.47;;;3.42;;
67065;SDS011;53978;43.846;25.952;2023-07-09T06:33:05;4.72;;;3.80;;
67065;SDS011;53978;43.846;25.952;2023-07-09T06:35:31;44.33;;;5.15;;
67065;SDS011;53978;43.846;25.952;2023-07-09T06:37:57;7.22;;;3.78;;
67065;SDS011;53978;43.846;25.952;2023-07-09T06:40:22;12.35;;;4.13;;
67065;SDS011;53978;43.846;25.952;2023-07-09T06:42:49;11.35;;;3.88;;
67065;SDS011;53978;43.846;25.952;2023-07-09T06:45:15;7.00;;;3.88;;
67065;SDS011;53978;43.846;25.952;2023-07-09T06:47:41;4.72;;;3.28;;
67065;SDS011;53978;43.846;25.952;2023-07-09T06:50:06;4.32;;;3.58;;
67065;SDS011;53978;43.846;25.952;2023-07-09T06:52:32;7.40;;;3.75;;
67065;SDS011;53978;43.846;25.952;2023-07-09T06:54:57;5.28;;;3.55;;
67065;SDS011;53978;43.846;25.952;2023-07-09T06:57:23;3.90;;;3.25;;
67065;SDS011;53978;43.846;25.952;2023-07-09T06:59:48;6.70;;;3.88;;
67065;SDS011;53978;43.846;25.952;2023-07-09T07:02:14;3.72;;;3.33;;
67065;SDS011;53978;43.846;25.952;2023-07-09T07:04:39;5.50;;;3.50;;
67065;SDS011;53978;43.846;25.952;2023-07-09T07:07:05;4.80;;;3.33;;
67065;SDS011;53978;43.846;25.952;2023-07-09T07:09:31;6.20;;;3.58;;
67065;SDS011;53978;43.846;25.952;2023-07-09T07:11:56;3.00;;;2.70;;
67065;SDS011;53978;43.846;25.952;2023-07-09T07:14:21;3.30;;;3.00;;
67065;SDS011;53978;43.846;25.952;2023-07-09T07:16:47;4.75;;;3.20;;
67065;SDS011;53978;43.846;25.952;2023-07-09T07:19:12;5.55;;;2.72;;
67065;SDS011;53978;43.846;25.952;2023-07-09T07:21:38;3.17;;;2.67;;
67065;SDS011;53978;43.846;25.952;2023-07-09T07:24:03;4.07;;;2.70;;
67065;SDS011;53978;43.846;25.952;2023-07-09T07:26:29;3.38;;;2.83;;
67065;SDS011;53978;43.846;25.952;2023-07-09T07:28:54;3.20;;;2.42;;
67065;SDS011;53978;43.846;25.952;2023-07-09T07:31:20;1.95;;;1.80;;
67065;SDS011;53978;43.846;25.952;2023-07-09T07:33:45;3.65;;;2.10;;
67065;SDS011;53978;43.846;25.952;2023-07-09T07:36:10;3.13;;;2.13;;
67065;SDS011;53978;43.846;25.952;2023-07-09T07:38:37;3.08;;;2.20;;
67065;SDS011;53978;43.846;25.952;2023-07-09T07:41:02;4.03;;;2.67;;
67065;SDS011;53978;43.846;25.952;2023-07-09T07:43:28;5.85;;;2.88;;
67065;SDS011;53978;43.846;25.952;2023-07-09T07:45:53;3.85;;;2.50;;
67065;SDS011;53978;43.846;25.952;2023-07-09T07:48:19;3.28;;;2.97;;
67065;SDS011;53978;43.846;25.952;2023-07-09T07:50:45;5.18;;;3.00;;
67065;SDS011;53978;43.846;25.952;2023-07-09T07:53:13;4.05;;;2.90;;
67065;SDS011;53978;43.846;25.952;2023-07-09T07:55:39;3.05;;;2.17;;
67065;SDS011;53978;43.846;25.952;2023-07-09T07:58:05;2.10;;;1.90;;
67065;SDS011;53978;43.846;25.952;2023-07-09T08:00:30;2.95;;;2.25;;
67065;SDS011;53978;43.846;25.952;2023-07-09T08:02:56;10.55;;;3.00;;
67065;SDS011;53978;43.846;25.952;2023-07-09T08:05:21;5.03;;;2.10;;
67065;SDS011;53978;43.846;25.952;2023-07-09T08:07:48;7.47;;;2.50;;
67065;SDS011;53978;43.846;25.952;2023-07-09T08:10:14;6.22;;;2.72;;
67065;SDS011;53978;43.846;25.952;2023-07-09T08:12:40;9.15;;;2.13;;
67065;SDS011;53978;43.846;25.952;2023-07-09T08:15:06;6.97;;;4.45;;
67065;SDS011;53978;43.846;25.952;2023-07-09T08:17:32;3.60;;;1.90;;
67065;SDS011;53978;43.846;25.952;2023-07-09T08:19:57;3.75;;;1.90;;
67065;SDS011;53978;43.846;25.952;2023-07-09T08:22:23;1.65;;;1.55;;
67065;SDS011;53978;43.846;25.952;2023-07-09T08:24:49;2.55;;;1.70;;
67065;SDS011;53978;43.846;25.952;2023-07-09T08:27:15;2.20;;;1.70;;
67065;SDS011;53978;43.846;25.952;2023-07-09T08:29:40;2.00;;;1.80;;
67065;SDS011;53978;43.846;25.952;2023-07-09T08:32:07;1.80;;;1.70;;
67065;SDS011;53978;43.846;25.952;2023-07-09T08:34:33;6.53;;;1.80;;
67065;SDS011;53978;43.846;25.952;2023-07-09T08:36:59;2.08;;;1.65;;
67065;SDS011;53978;43.846;25.952;2023-07-09T08:39:24;2.08;;;1.88;;
67065;SDS011;53978;43.846;25.952;2023-07-09T08:42:02;5.70;;;2.10;;
67065;SDS011;53978;43.846;25.952;2023-07-09T08:47:13;1.85;;;1.70;;
67065;SDS011;53978;43.846;25.952;2023-07-09T08:52:49;3.42;;;2.05;;
67065;SDS011;53978;43.846;25.952;2023-07-09T08:55:18;2.47;;;1.65;;
67065;SDS011;53978;43.846;25.952;2023-07-09T08:57:47;2.60;;;2.40;;
67065;SDS011;53978;43.846;25.952;2023-07-09T09:00:22;3.50;;;1.60;;
67065;SDS011;53978;43.846;25.952;2023-07-09T09:02:54;5.60;;;1.98;;
67065;SDS011;53978;43.846;25.952;2023-07-09T09:05:25;3.72;;;1.52;;
67065;SDS011;53978;43.846;25.952;2023-07-09T09:07:55;1.40;;;1.30;;
67065;SDS011;53978;43.846;25.952;2023-07-09T09:10:29;1.85;;;1.65;;
67065;SDS011;53978;43.846;25.952;2023-07-09T09:13:09;5.05;;;1.60;;
67065;SDS011;53978;43.846;25.952;2023-07-09T09:15:40;2.72;;;1.95;;
67065;SDS011;53978;43.846;25.952;2023-07-09T09:18:14;3.28;;;2.30;;
67065;SDS011;53978;43.846;25.952;2023-07-09T09:20:51;8.55;;;5.47;;
67065;SDS011;53978;43.846;25.952;2023-07-09T09:23:21;4.80;;;3.13;;
67065;SDS011;53978;43.846;25.952;2023-07-09T09:25:50;5.93;;;4.35;;
67065;SDS011;53978;43.846;25.952;2023-07-09T09:28:18;1.83;;;1.70;;
67065;SDS011;53978;43.846;25.952;2023-07-09T09:30:43;2.30;;;2.05;;
67065;SDS011;53978;43.846;25.952;2023-07-09T09:33:09;3.33;;;2.72;;
67065;SDS011;53978;43.846;25.952;2023-07-09T09:35:40;3.15;;;2.42;;
67065;SDS011;53978;43.846;25.952;2023-07-09T09:38:15;2.55;;;1.80;;
67065;SDS011;53978;43.846;25.952;2023-07-09T09:40:42;2.05;;;1.60;;
67065;SDS011;53978;43.846;25.952;2023-07-09T09:43:17;3.13;;;2.17;;
67065;SDS011;53978;43.846;25.952;2023-07-09T09:45:45;3.53;;;2.03;;
67065;SDS011;53978;43.846;25.952;2023-07-09T09:48:29;1.58;;;1.48;;
67065;SDS011;53978;43.846;25.952;2023-07-09T09:50:56;1.75;;;1.58;;
67065;SDS011;53978;43.846;25.952;2023-07-09T09:53:25;1.40;;;1.30;;
67065;SDS011;53978;43.846;25.952;2023-07-09T09:55:52;3.03;;;1.58;;
67065;SDS011;53978;43.846;25.952;2023-07-09T09:58:19;2.72;;;1.90;;
67065;SDS011;53978;43.846;25.952;2023-07-09T10:00:51;9.68;;;1.63;;
67065;SDS011;53978;43.846;25.952;2023-07-09T10:03:17;2.35;;;1.20;;
67065;SDS011;53978;43.846;25.952;2023-07-09T10:05:44;1.70;;;1.60;;
67065;SDS011;53978;43.846;25.952;2023-07-09T10:13:36;1.40;;;1.30;;
67065;SDS011;53978;43.846;25.952;2023-07-09T10:21:30;1.60;;;1.40;;
67065;SDS011;53978;43.846;25.952;2023-07-09T10:24:12;1.83;;;1.35;;
67065;SDS011;53978;43.846;25.952;2023-07-09T10:27:00;2.80;;;1.38;;
67065;SDS011;53978;43.846;25.952;2023-07-09T10:32:26;1.35;;;1.25;;
67065;SDS011;53978;43.846;25.952;2023-07-09T10:37:52;1.50;;;1.40;;
67065;SDS011;53978;43.846;25.952;2023-07-09T10:43:27;2.35;;;1.30;;
67065;SDS011;53978;43.846;25.952;2023-07-09T10:46:02;3.88;;;1.38;;
67065;SDS011;53978;43.846;25.952;2023-07-09T10:51:01;1.00;;;1.00;;
67065;SDS011;53978;43.846;25.952;2023-07-09T10:53:29;2.10;;;1.40;;
67065;SDS011;53978;43.846;25.952;2023-07-09T10:56:05;4.90;;;1.40;;
67065;SDS011;53978;43.846;25.952;2023-07-09T11:01:34;1.20;;;1.10;;
67065;SDS011;53978;43.846;25.952;2023-07-09T11:07:07;1.40;;;1.20;;
67065;SDS011;53978;43.846;25.952;2023-07-09T11:09:38;2.45;;;1.00;;
67065;SDS011;53978;43.846;25.952;2023-07-09T11:12:06;1.17;;;1.10;;
67065;SDS011;53978;43.846;25.952;2023-07-09T11:14:50;1.60;;;1.10;;
67065;SDS011;53978;43.846;25.952;2023-07-09T11:17:19;1.52;;;1.10;;
67065;SDS011;53978;43.846;25.952;2023-07-09T11:19:45;1.10;;;1.00;;
67065;SDS011;53978;43.846;25.952;2023-07-09T11:27:52;3.58;;;1.33;;
67065;SDS011;53978;43.846;25.952;2023-07-09T11:30:26;1.10;;;1.10;;
67065;SDS011;53978;43.846;25.952;2023-07-09T11:33:03;1.73;;;1.40;;
67065;SDS011;53978;43.846;25.952;2023-07-09T11:35:42;1.40;;;1.30;;
67065;SDS011;53978;43.846;25.952;2023-07-09T11:38:14;1.55;;;1.00;;
67065;SDS011;53978;43.846;25.952;2023-07-09T11:40:52;1.40;;;1.30;;
67065;SDS011;53978;43.846;25.952;2023-07-09T11:45:55;1.23;;;1.13;;
67065;SDS011;53978;43.846;25.952;2023-07-09T11:48:25;3.17;;;1.10;;
67065;SDS011;53978;43.846;25.952;2023-07-09T11:50:52;1.55;;;1.45;;
67065;SDS011;53978;43.846;25.952;2023-07-09T11:53:34;4.18;;;1.30;;
67065;SDS011;53978;43.846;25.952;2023-07-09T11:56:03;1.33;;;1.23;;
67065;SDS011;53978;43.846;25.952;2023-07-09T11:58:29;1.70;;;1.33;;
67065;SDS011;53978;43.846;25.952;2023-07-09T12:00:55;1.45;;;1.23;;
67065;SDS011;53978;43.846;25.952;2023-07-09T12:03:27;1.70;;;1.52;;
67065;SDS011;53978;43.846;25.952;2023-07-09T12:05:55;1.83;;;1.42;;
67065;SDS011;53978;43.846;25.952;2023-07-09T12:08:30;1.38;;;1.27;;
67065;SDS011;53978;43.846;25.952;2023-07-09T12:10:58;2.22;;;1.33;;
67065;SDS011;53978;43.846;25.952;2023-07-09T12:13:24;1.98;;;1.50;;
67065;SDS011;53978;43.846;25.952;2023-07-09T12:15:49;1.48;;;1.38;;
67065;SDS011;53978;43.846;25.952;2023-07-09T12:18:15;2.28;;;1.40;;
67065;SDS011;53978;43.846;25.952;2023-07-09T12:20:41;3.63;;;1.45;;
67065;SDS011;53978;43.846;25.952;2023-07-09T12:25:55;2.97;;;1.50;;
67065;SDS011;53978;43.846;25.952;2023-07-09T12:28:26;2.30;;;1.40;;
67065;SDS011;53978;43.846;25.952;2023-07-09T12:30:52;2.67;;;1.60;;
67065;SDS011;53978;43.846;25.952;2023-07-09T12:33:19;2.65;;;1.60;;
67065;SDS011;53978;43.846;25.952;2023-07-09T12:35:50;2.15;;;1.60;;
67065;SDS011;53978;43.846;25.952;2023-07-09T12:38:21;1.63;;;1.52;;
67065;SDS011;53978;43.846;25.952;2023-07-09T12:40:48;5.05;;;1.42;;
67065;SDS011;53978;43.846;25.952;2023-07-09T12:43:16;3.25;;;1.60;;
67065;SDS011;53978;43.846;25.952;2023-07-09T12:45:46;1.90;;;1.65;;
67065;SDS011;53978;43.846;25.952;2023-07-09T12:48:12;2.17;;;1.40;;
67065;SDS011;53978;43.846;25.952;2023-07-09T12:50:38;4.38;;;1.90;;
67065;SDS011;53978;43.846;25.952;2023-07-09T12:53:14;3.75;;;1.80;;
67065;SDS011;53978;43.846;25.952;2023-07-09T12:55:41;3.35;;;1.52;;
67065;SDS011;53978;43.846;25.952;2023-07-09T12:58:19;1.90;;;1.70;;
67065;SDS011;53978;43.846;25.952;2023-07-09T13:00:48;4.60;;;1.73;;
67065;SDS011;53978;43.846;25.952;2023-07-09T13:03:18;3.67;;;1.70;;
67065;SDS011;53978;43.846;25.952;2023-07-09T13:05:51;4.53;;;1.90;;
67065;SDS011;53978;43.846;25.952;2023-07-09T13:08:21;2.67;;;1.80;;
67065;SDS011;53978;43.846;25.952;2023-07-09T13:10:47;3.50;;;1.60;;
67065;SDS011;53978;43.846;25.952;2023-07-09T13:13:16;2.17;;;1.70;;
67065;SDS011;53978;43.846;25.952;2023-07-09T13:15:43;2.47;;;1.67;;
67065;SDS011;53978;43.846;25.952;2023-07-09T13:18:13;1.55;;;1.45;;
67065;SDS011;53978;43.846;25.952;2023-07-09T13:20:40;2.38;;;1.70;;
67065;SDS011;53978;43.846;25.952;2023-07-09T13:23:11;3.42;;;1.45;;
67065;SDS011;53978;43.846;25.952;2023-07-09T13:25:39;2.33;;;1.52;;
67065;SDS011;53978;43.846;25.952;2023-07-09T13:28:08;7.15;;;1.45;;
67065;SDS011;53978;43.846;25.952;2023-07-09T13:30:39;2.13;;;1.60;;
67065;SDS011;53978;43.846;25.952;2023-07-09T13:33:07;2.65;;;1.42;;
67065;SDS011;53978;43.846;25.952;2023-07-09T13:35:33;1.77;;;1.40;;
67065;SDS011;53978;43.846;25.952;2023-07-09T13:37:59;1.70;;;1.60;;
67065;SDS011;53978;43.846;25.952;2023-07-09T13:40:24;3.60;;;1.40;;
67065;SDS011;53978;43.846;25.952;2023-07-09T13:42:50;2.75;;;1.60;;
67065;SDS011;53978;43.846;25.952;2023-07-09T13:45:16;1.52;;;1.42;;
67065;SDS011;53978;43.846;25.952;2023-07-09T13:47:47;4.28;;;1.73;;
67065;SDS011;53978;43.846;25.952;2023-07-09T13:50:13;2.05;;;1.70;;
67065;SDS011;53978;43.846;25.952;2023-07-09T13:52:39;1.63;;;1.42;;
67065;SDS011;53978;43.846;25.952;2023-07-09T13:55:04;4.95;;;1.63;;
67065;SDS011;53978;43.846;25.952;2023-07-09T13:57:30;2.70;;;1.40;;
67065;SDS011;53978;43.846;25.952;2023-07-09T13:59:56;1.50;;;1.40;;
67065;SDS011;53978;43.846;25.952;2023-07-09T14:04:49;2.00;;;1.50;;
67065;SDS011;53978;43.846;25.952;2023-07-09T14:09:49;3.45;;;1.50;;
67065;SDS011;53978;43.846;25.952;2023-07-09T14:12:15;1.40;;;1.30;;
67065;SDS011;53978;43.846;25.952;2023-07-09T14:14:40;2.60;;;1.52;;
67065;SDS011;53978;43.846;25.952;2023-07-09T14:17:11;1.85;;;1.40;;
67065;SDS011;53978;43.846;25.952;2023-07-09T14:19:37;1.55;;;1.40;;
67065;SDS011;53978;43.846;25.952;2023-07-09T14:22:02;1.50;;;1.40;;
67065;SDS011;53978;43.846;25.952;2023-07-09T14:24:39;2.10;;;1.60;;
67065;SDS011;53978;43.846;25.952;2023-07-09T14:27:04;1.40;;;1.30;;
67065;SDS011;53978;43.846;25.952;2023-07-09T14:29:33;1.85;;;1.60;;
67065;SDS011;53978;43.846;25.952;2023-07-09T14:31:58;1.65;;;1.40;;
67065;SDS011;53978;43.846;25.952;2023-07-09T14:34:24;1.75;;;1.40;;
67065;SDS011;53978;43.846;25.952;2023-07-09T14:36:53;1.92;;;1.63;;
67065;SDS011;53978;43.846;25.952;2023-07-09T14:39:20;2.55;;;1.60;;
67065;SDS011;53978;43.846;25.952;2023-07-09T14:41:46;1.52;;;1.42;;
67065;SDS011;53978;43.846;25.952;2023-07-09T14:46:43;2.15;;;1.48;;
67065;SDS011;53978;43.846;25.952;2023-07-09T14:49:09;2.83;;;1.63;;
67065;SDS011;53978;43.846;25.952;2023-07-09T14:51:35;1.58;;;1.45;;
67065;SDS011;53978;43.846;25.952;2023-07-09T14:54:00;1.83;;;1.60;;
67065;SDS011;53978;43.846;25.952;2023-07-09T14:56:26;3.63;;;1.48;;
67065;SDS011;53978;43.846;25.952;2023-07-09T14:58:51;2.90;;;1.40;;
67065;SDS011;53978;43.846;25.952;2023-07-09T15:01:17;1.63;;;1.40;;
67065;SDS011;53978;43.846;25.952;2023-07-09T15:03:43;1.70;;;1.27;;
67065;SDS011;53978;43.846;25.952;2023-07-09T15:06:09;1.30;;;1.20;;
67065;SDS011;53978;43.846;25.952;2023-07-09T15:08:34;3.08;;;1.52;;
67065;SDS011;53978;43.846;25.952;2023-07-09T15:11:00;3.15;;;1.48;;
67065;SDS011;53978;43.846;25.952;2023-07-09T15:13:34;5.20;;;2.00;;
67065;SDS011;53978;43.846;25.952;2023-07-09T15:16:01;3.95;;;2.95;;
67065;SDS011;53978;43.846;25.952;2023-07-09T15:18:28;2.28;;;1.60;;
67065;SDS011;53978;43.846;25.952;2023-07-09T15:20:54;3.13;;;1.70;;
67065;SDS011;53978;43.846;25.952;2023-07-09T15:23:22;4.38;;;1.50;;
67065;SDS011;53978;43.846;25.952;2023-07-09T15:25:48;4.43;;;1.55;;
67065;SDS011;53978;43.846;25.952;2023-07-09T15:28:15;3.90;;;3.00;;
67065;SDS011;53978;43.846;25.952;2023-07-09T15:30:40;2.08;;;1.45;;